Time;durP1;ratioP1;P1;durP2;ratioP2;P2;SDS_P1;SDS_P2;PMS_P1;PMS_P2;Temp;Humidity;BMP_temperature;BMP_pressure;BME280_temperature;BME280_humidity;BME280_pressure;Samples;Min_cycle;Max_cycle;Signal;HPM_P1;HPM_P2
2021/05/20 00:04:11;;;;;;;5.15;2.20;;;;;;;12.91;100.00;98177.13;1733456;81;20891;-74
2021/05/20 00:07:01;;;;;;;2.50;1.80;;;;;;;12.89;100.00;98179.83;1726916;81;20976;-74
2021/05/20 00:09:34;;;;;;;3.30;2.12;;;;;;;12.89;100.00;98181.16;1726968;81;20910;-74
2021/05/20 00:12:09;;;;;;;3.17;2.22;;;;;;;12.89;100.00;98182.93;1737316;82;20930;-73
2021/05/20 00:14:42;;;;;;;2.47;1.90;;;;;;;12.87;100.00;98184.30;1737511;81;20946;-73
2021/05/20 00:17:18;;;;;;;5.12;2.55;;;;;;;12.88;100.00;98179.87;1706495;82;21424;-73
2021/05/20 00:20:09;;;;;;;;;;;;;;;;;;;;;
2021/05/20 00:25:21;;;;;;;10.13;2.22;;;;;;;12.77;100.00;98176.23;1717720;81;20914;-73
2021/05/20 00:27:54;;;;;;;5.35;2.25;;;;;;;12.78;100.00;98179.75;1719820;81;21384;-74
2021/05/20 00:30:29;;;;;;;6.67;2.60;;;;;;;12.75;100.00;98181.13;1737513;81;21266;-74
2021/05/20 00:33:21;;;;;;;3.25;2.15;;;;;;;12.75;100.00;98175.38;1736526;81;21432;-74
2021/05/20 00:36:18;;;;;;;2.33;1.92;;;;;;;12.75;100.00;98163.93;1707315;82;21448;-75
2021/05/20 00:38:50;;;;;;;4.50;2.10;;;;;;;12.74;100.00;98152.48;1717815;82;20969;-73
2021/05/20 00:41:18;;;;;;;5.30;2.30;;;;;;;12.79;100.00;98159.85;1661387;85;20906;-74
2021/05/20 00:44:00;;;;;;;4.22;2.02;;;;;;;12.80;100.00;98156.30;1750750;80;21170;-74
2021/05/20 00:46:48;;;;;;;2.50;1.90;;;;;;;12.82;100.00;98163.73;1736611;80;21392;-75
2021/05/20 00:49:26;;;;;;;1.92;1.75;;;;;;;12.80;100.00;98160.72;1743704;82;20890;-74
2021/05/20 00:52:01;;;;;;;3.47;2.00;;;;;;;12.82;100.00;98157.11;1743550;80;20941;-75
2021/05/20 00:54:31;;;;;;;2.80;2.08;;;;;;;12.84;100.00;98153.96;1672975;83;20886;-72
2021/05/20 00:57:18;;;;;;;2.35;2.10;;;;;;;12.85;100.00;98157.47;1729806;80;21436;-74
2021/05/20 01:00:24;;;;;;;2.47;2.27;;;;;;;12.86;100.00;98145.97;1723303;80;21376;-75
2021/05/20 01:02:45;;;;;;;1.77;1.67;;;;;;;12.84;100.00;98147.80;1735587;80;21418;-74
2021/05/20 01:05:23;;;;;;;6.60;2.40;;;;;;;12.84;100.00;98155.28;1741566;82;20969;-73
2021/05/20 01:08:05;;;;;;;3.65;2.45;;;;;;;12.84;100.00;98147.34;1716801;82;21391;-74
2021/05/20 01:10:42;;;;;;;2.87;2.10;;;;;;;12.83;100.00;98150.04;1729759;82;20933;-72
2021/05/20 01:13:29;;;;;;;2.65;1.98;;;;;;;12.81;100.00;98140.83;1719679;82;20914;-72
2021/05/20 01:16:16;;;;;;;3.47;1.90;;;;;;;12.78;100.00;98142.24;1712232;82;20918;-73
2021/05/20 01:19:17;;;;;;;2.30;1.60;;;;;;;12.74;100.00;98135.28;1701699;82;21396;-74
2021/05/20 01:22:04;;;;;;;4.55;2.00;;;;;;;12.73;100.00;98133.55;1674907;83;20974;-74
2021/05/20 01:25:02;;;;;;;4.15;2.62;;;;;;;12.71;100.00;98132.73;1726798;82;21400;-72
2021/05/20 01:27:48;;;;;;;2.05;1.90;;;;;;;12.70;100.00;98130.12;1716234;82;20881;-73
2021/05/20 01:30:24;;;;;;;2.58;1.90;;;;;;;12.68;100.00;98124.02;1716082;82;20874;-74
2021/05/20 01:33:24;;;;;;;3.72;1.95;;;;;;;12.66;100.00;98117.91;1747192;82;20898;-73
2021/05/20 01:36:37;;;;;;;1.98;1.77;;;;;;;12.65;100.00;98118.82;1731506;82;21381;-74
2021/05/20 01:39:14;;;;;;;4.15;1.95;;;;;;;12.59;100.00;98110.16;1666940;83;21500;-74
2021/05/20 01:41:41;;;;;;;4.47;2.10;;;;;;;12.55;100.00;98104.56;1737073;82;21388;-73
2021/05/20 01:44:20;;;;;;;;;;;;;;;12.54;100.00;98102.83;1733182;82;20925;-72
2021/05/20 01:50:04;;;;;;;3.52;2.25;;;;;;;12.47;100.00;98112.31;1712255;82;21443;-74
2021/05/20 01:52:35;;;;;;;2.52;2.17;;;;;;;12.47;100.00;98114.96;1738327;82;21499;-73
2021/05/20 01:55:15;;;;;;;4.17;2.10;;;;;;;12.42;100.00;98116.88;1750989;80;20910;-70
2021/05/20 01:58:00;;;;;;;5.75;2.35;;;;;;;12.40;100.00;98111.64;1743609;82;20878;-73
2021/05/20 02:00:36;;;;;;;3.05;1.95;;;;;;;12.43;100.00;98127.41;1660899;82;20958;-74
2021/05/20 02:06:14;;;;;;;6.58;2.20;;;;;;;12.36;100.00;98130.28;1657143;83;21528;-74
2021/05/20 02:09:20;;;;;;;;;;;;;;;12.15;100.00;98136.58;1727612;80;21400;-72
2021/05/20 02:14:27;;;;;;;2.50;1.75;;;;;;;11.89;100.00;98143.05;1720531;82;20953;-72
2021/05/20 02:17:02;;;;;;;3.95;1.90;;;;;;;11.84;100.00;98137.02;1681239;83;21511;-73
2021/05/20 02:19:36;;;;;;;2.58;1.80;;;;;;;11.84;100.00;98141.86;1693757;82;21085;-73
2021/05/20 02:22:11;;;;;;;4.60;2.25;;;;;;;11.86;100.00;98136.08;1725172;82;21419;-72
2021/05/20 02:25:00;;;;;;;;;;;;;;;11.88;100.00;98137.36;1721240;81;21428;-71
2021/05/20 02:27:43;;;;;;;4.45;1.90;;;;;;;11.90;100.00;98146.11;1721697;82;20232;-73
2021/05/20 02:30:28;;;;;;;2.10;1.90;;;;;;;11.91;100.00;98146.52;1723983;82;21464;-72
2021/05/20 02:33:02;;;;;;;8.20;2.45;;;;;;;11.92;100.00;98146.93;1733070;82;21455;-65
2021/05/20 02:35:42;;;;;;;3.98;2.00;;;;;;;11.95;100.00;98146.39;1731019;80;21382;-70
2021/05/20 02:38:33;;;;;;;;;;;;;;;;;;;;;
2021/05/20 02:41:02;;;;;;;8.90;2.62;;;;;;;12.04;100.00;98157.62;1676147;83;21433;-72
2021/05/20 02:43:35;;;;;;;3.62;2.20;;;;;;;12.03;100.00;98163.36;1712442;82;20936;-69
2021/05/20 02:46:04;;;;;;;2.55;2.33;;;;;;;11.98;100.00;98168.77;1669752;83;21789;-69
2021/05/20 02:48:32;;;;;;;5.53;2.20;;;;;;;11.88;100.00;98171.70;1719934;82;20881;-70
2021/05/20 02:51:06;;;;;;;4.03;2.80;;;;;;;11.80;100.00;98171.02;1719830;83;20917;-69
2021/05/20 02:53:42;;;;;;;8.23;2.00;;;;;;;11.75;100.00;98164.95;1720053;83;20957;-67
2021/05/20 02:56:10;;;;;;;5.83;2.33;;;;;;;11.72;100.00;98171.19;1733708;80;21538;-70
2021/05/20 02:58:49;;;;;;;2.83;2.58;;;;;;;11.72;100.00;98180.43;1749905;80;21779;-71
2021/05/20 03:01:22;;;;;;;2.50;2.30;;;;;;;11.72;100.00;98183.53;1748528;80;21466;-70
2021/05/20 03:03:53;;;;;;;2.50;2.22;;;;;;;11.69;100.00;98188.44;1749978;80;20898;-72
2021/05/20 03:06:30;;;;;;;3.05;2.35;;;;;;;11.69;100.00;98202.97;1716313;82;21000;-69
2021/05/20 03:08:57;;;;;;;2.77;1.77;;;;;;;11.71;100.00;98199.83;1720260;83;20897;-70
2021/05/20 03:11:30;;;;;;;3.67;2.12;;;;;;;11.70;100.00;98207.34;1720203;82;20986;-70
2021/05/20 03:14:08;;;;;;;3.00;2.70;;;;;;;11.69;100.00;98208.25;1718567;83;20930;-70
2021/05/20 03:16:41;;;;;;;2.27;2.05;;;;;;;11.71;100.00;98209.53;1664680;83;20966;-70
2021/05/20 03:19:20;;;;;;;2.98;2.30;;;;;;;11.71;100.00;98215.68;1719713;83;21483;-69
2021/05/20 03:21:48;;;;;;;4.20;2.20;;;;;;;11.71;100.00;98213.49;1719313;82;21468;-69
2021/05/20 03:24:17;;;;;;;8.30;2.42;;;;;;;11.72;100.00;98214.77;1746453;80;21442;-70
2021/05/20 03:26:50;;;;;;;4.53;2.22;;;;;;;11.74;100.00;98226.63;1749775;80;20914;-70
2021/05/20 03:29:21;;;;;;;4.30;2.40;;;;;;;11.73;100.00;98235.45;1749790;80;21396;-70
2021/05/20 03:31:51;;;;;;;3.33;2.30;;;;;;;11.75;100.00;98246.86;1738509;80;20902;-69
2021/05/20 03:34:23;;;;;;;2.50;2.20;;;;;;;11.79;100.00;98249.87;1730037;82;21408;-67
2021/05/20 03:37:03;;;;;;;2.90;2.35;;;;;;;11.85;100.00;98251.06;1719358;82;21475;-68
2021/05/20 03:39:44;;;;;;;5.47;2.47;;;;;;;11.89;100.00;98250.94;1662095;85;20906;-67
2021/05/20 03:42:06;;;;;;;4.03;2.40;;;;;;;11.96;100.00;98245.05;1716916;82;21396;-68
2021/05/20 03:44:36;;;;;;;4.53;2.30;;;;;;;12.03;100.00;98236.05;1718652;83;20937;-69
2021/05/20 03:47:06;;;;;;;2.98;2.40;;;;;;;12.09;100.00;98233.23;1744477;80;20909;-69
2021/05/20 03:49:36;;;;;;;5.28;2.83;;;;;;;12.15;100.00;98241.45;1749623;80;21415;-69
2021/05/20 03:52:06;;;;;;;8.08;3.20;;;;;;;12.17;100.00;98247.57;1749592;80;21423;-66
2021/05/20 03:54:40;;;;;;;2.92;2.47;;;;;;;12.18;100.00;98247.53;1749529;82;21000;-68
2021/05/20 03:57:06;;;;;;;7.25;3.08;;;;;;;12.21;100.00;98248.77;1748168;82;21553;-68
2021/05/20 03:59:34;;;;;;;4.42;2.55;;;;;;;12.26;100.00;98247.32;1748636;80;21017;-68
2021/05/20 04:02:04;;;;;;;3.00;2.55;;;;;;;12.34;100.00;98251.11;1748693;82;21045;-69
2021/05/20 04:04:33;;;;;;;4.47;2.75;;;;;;;12.41;100.00;98241.64;1748599;80;21539;-70
2021/05/20 04:07:03;;;;;;;2.85;2.40;;;;;;;12.45;100.00;98241.09;1748725;82;21590;-70
2021/05/20 04:09:31;;;;;;;3.30;2.58;;;;;;;12.49;100.00;98237.00;1748903;80;21056;-70
2021/05/20 04:11:59;;;;;;;3.47;2.58;;;;;;;12.55;100.00;98234.18;1749082;82;20977;-71
2021/05/20 04:14:26;;;;;;;6.87;3.27;;;;;;;12.57;100.00;98228.39;1748949;80;21067;-70
2021/05/20 04:16:53;;;;;;;3.65;2.87;;;;;;;12.61;100.00;98233.13;1749146;80;20898;-69
2021/05/20 04:19:21;;;;;;;3.58;2.80;;;;;;;12.65;100.00;98222.01;1749666;82;20925;-70
2021/05/20 04:21:49;;;;;;;3.67;2.50;;;;;;;12.72;100.00;98220.91;1749639;80;20941;-70
2021/05/20 04:24:21;;;;;;;3.35;2.80;;;;;;;12.79;100.00;98219.86;1749597;80;21400;-70
2021/05/20 04:26:47;;;;;;;4.28;2.75;;;;;;;12.85;100.00;98218.34;1749630;80;21125;-70
2021/05/20 04:29:15;;;;;;;3.42;2.90;;;;;;;12.88;100.00;98213.83;1749603;80;20926;-71
2021/05/20 04:31:42;;;;;;;3.10;2.80;;;;;;;12.93;100.00;98210.58;1749641;80;21395;-70
2021/05/20 04:34:10;;;;;;;7.80;4.80;;;;;;;12.98;100.00;98210.44;1749612;80;20918;-70
2021/05/20 04:36:40;;;;;;;8.73;6.10;;;;;;;13.04;100.00;98210.25;1749330;80;21427;-70
2021/05/20 04:39:08;;;;;;;8.35;3.95;;;;;;;13.11;100.00;98210.47;1749101;80;21066;-71
2021/05/20 04:41:36;;;;;;;5.20;3.90;;;;;;;13.18;100.00;98209.39;1714891;82;21539;-71
2021/05/20 04:44:05;;;;;;;5.03;3.10;;;;;;;13.22;100.00;98208.84;1735694;82;20954;-70
2021/05/20 04:46:33;;;;;;;4.92;3.45;;;;;;;13.26;100.00;98206.99;1735556;82;21033;-70
2021/05/20 04:49:11;;;;;;;7.33;3.25;;;;;;;13.36;100.00;98212.40;1729457;81;20914;-70
2021/05/20 04:51:30;;;;;;;4.58;3.20;;;;;;;13.41;100.00;98216.63;1716624;81;21783;-64
2021/05/20 04:53:58;;;;;;;4.15;3.10;;;;;;;13.47;100.00;98209.81;1706155;84;20902;-69
2021/05/20 04:56:26;;;;;;;4.08;3.65;;;;;;;13.55;100.00;98207.78;1706848;82;20930;-69
2021/05/20 04:58:57;;;;;;;3.95;3.45;;;;;;;13.64;100.00;98225.16;1721404;82;20902;-70
2021/05/20 05:01:27;;;;;;;4.30;3.50;;;;;;;13.70;100.00;98228.92;1735627;82;21467;-69
2021/05/20 05:03:58;;;;;;;4.30;3.62;;;;;;;13.79;100.00;98229.97;1726762;81;21048;-70
2021/05/20 05:06:26;;;;;;;4.80;4.00;;;;;;;13.85;100.00;98228.90;1718344;81;20921;-70
2021/05/20 05:08:55;;;;;;;7.30;4.65;;;;;;;13.90;100.00;98232.26;1706299;82;20890;-69
2021/05/20 05:11:23;;;;;;;5.28;3.85;;;;;;;13.97;100.00;98231.13;1685996;84;20985;-68
2021/05/20 05:13:51;;;;;;;5.97;4.20;;;;;;;14.04;100.00;98230.45;1686362;84;20934;-69
2021/05/20 05:16:19;;;;;;;8.28;4.37;;;;;;;14.13;100.00;98230.14;1706265;82;21039;-69
2021/05/20 05:18:47;;;;;;;6.55;4.62;;;;;;;14.23;100.00;98233.36;1706230;82;20898;-70
2021/05/20 05:21:15;;;;;;;7.72;3.83;;;;;;;14.30;100.00;98237.53;1706220;84;20863;-68
2021/05/20 05:23:43;;;;;;;7.28;4.10;;;;;;;14.36;100.00;98238.17;1706168;82;21448;-69
2021/05/20 05:26:11;;;;;;;10.25;5.53;;;;;;;14.42;100.00;98235.76;1706201;82;21510;-69
2021/05/20 05:28:38;;;;;;;6.40;4.53;;;;;;;14.45;100.00;98232.56;1706245;82;21049;-69
2021/05/20 05:31:07;;;;;;;6.25;4.70;;;;;;;14.49;100.00;98231.99;1706143;83;20918;-69
2021/05/20 05:33:35;;;;;;;6.33;5.45;;;;;;;14.52;100.00;98229.23;1706198;83;20910;-69
2021/05/20 05:36:04;;;;;;;6.87;4.25;;;;;;;14.59;100.00;98231.20;1706126;82;20942;-68
2021/05/20 05:38:32;;;;;;;8.88;5.58;;;;;;;14.67;100.00;98229.16;1706623;82;21432;-69
2021/05/20 05:41:00;;;;;;;6.22;4.78;;;;;;;14.68;100.00;98225.58;1719257;81;21039;-67
2021/05/20 05:43:28;;;;;;;11.30;8.43;;;;;;;14.72;100.00;98222.75;1735542;81;20914;-69
2021/05/20 05:45:58;;;;;;;8.00;6.08;;;;;;;14.82;100.00;98228.58;1735581;82;20922;-68
2021/05/20 05:48:25;;;;;;;6.65;4.28;;;;;;;14.92;100.00;98223.32;1735555;82;20898;-70
2021/05/20 05:50:56;;;;;;;5.22;4.30;;;;;;;15.02;100.00;98218.52;1735576;81;20930;-69
2021/05/20 05:53:24;;;;;;;6.33;4.45;;;;;;;15.10;100.00;98209.79;1735588;82;21032;-68
2021/05/20 05:55:52;;;;;;;5.55;4.08;;;;;;;15.23;100.00;98204.89;1735512;82;21460;-71
2021/05/20 05:58:20;;;;;;;6.03;4.03;;;;;;;15.36;100.00;98204.80;1735658;81;20907;-69
2021/05/20 06:00:49;;;;;;;5.25;3.37;;;;;;;15.46;100.00;98203.49;1735572;82;20950;-68
2021/05/20 06:03:16;;;;;;;4.67;3.80;;;;;;;15.56;100.00;98198.20;1735760;82;20898;-68
2021/05/20 06:05:48;;;;;;;4.65;3.95;;;;;;;15.63;100.00;98190.90;1735638;81;21637;-69
2021/05/20 06:08:17;;;;;;;5.03;3.87;;;;;;;15.72;100.00;98190.52;1735560;81;20926;-69
2021/05/20 06:10:45;;;;;;;5.97;3.27;;;;;;;15.80;100.00;98197.70;1725944;82;20934;-68
2021/05/20 06:13:13;;;;;;;8.45;4.95;;;;;;;15.83;100.00;98198.03;1706189;84;20969;-68
2021/05/20 06:15:41;;;;;;;7.65;4.12;;;;;;;15.86;100.00;98193.92;1706341;84;20878;-69
2021/05/20 06:18:09;;;;;;;7.87;3.67;;;;;;;15.89;100.00;98195.98;1706198;82;21037;-68
2021/05/20 06:20:38;;;;;;;7.17;4.10;;;;;;;15.96;100.00;98196.58;1706078;82;20941;-68
2021/05/20 06:23:07;;;;;;;5.28;3.60;;;;;;;16.06;100.00;98193.92;1708108;82;21345;-68
2021/05/20 06:25:35;;;;;;;4.78;4.15;;;;;;;16.11;100.00;98205.27;1722698;82;20926;-69
2021/05/20 06:28:07;;;;;;;6.75;4.00;;;;;;;16.17;100.00;98203.66;1720326;81;20914;-69
2021/05/20 06:30:35;;;;;;;;;;;;;;;16.24;100.00;98210.45;1737960;81;21055;-69
2021/05/20 06:33:03;;;;;;;14.80;10.93;;;;;;;16.30;100.00;98205.31;1735545;81;20178;-69
2021/05/20 06:35:30;;;;;;;17.62;11.53;;;;;;;16.35;100.00;98201.52;1735564;81;20922;-69
2021/05/20 06:37:59;;;;;;;9.45;6.05;;;;;;;16.42;100.00;98200.78;1735451;81;20930;-69
2021/05/20 06:40:29;;;;;;;5.08;4.08;;;;;;;16.51;100.00;98187.05;1736987;80;20921;-70
2021/05/20 06:42:56;;;;;;;5.75;4.10;;;;;;;16.59;100.00;98188.94;1734358;82;21053;-69
2021/05/20 06:45:25;;;;;;;3.98;3.40;;;;;;;16.66;100.00;98187.75;1749474;80;20854;-68
2021/05/20 06:47:54;;;;;;;15.05;3.60;;;;;;;16.79;100.00;98185.85;1740748;80;20934;-69
2021/05/20 06:50:22;;;;;;;9.55;4.08;;;;;;;16.88;100.00;98186.75;1732805;81;20980;-69
2021/05/20 06:52:53;;;;;;;6.65;3.72;;;;;;;16.96;100.00;98192.59;1749637;80;21393;-69
2021/05/20 06:55:22;;;;;;;7.12;4.28;;;;;;;17.05;100.00;98193.52;1749564;81;21620;-69
2021/05/20 07:00:37;;;;;;;6.62;3.95;;;;;;;17.23;100.00;98192.63;1749585;82;20881;-69
2021/05/20 07:03:05;;;;;;;5.47;3.27;;;;;;;17.32;100.00;98188.66;1749523;80;21440;-68
2021/05/20 07:05:32;;;;;;;6.15;3.77;;;;;;;17.39;100.00;98189.22;1749591;80;21424;-68
2021/05/20 07:08:00;;;;;;;10.75;3.80;;;;;;;17.45;100.00;98186.25;1749596;80;21039;-68
2021/05/20 07:10:28;;;;;;;7.70;3.35;;;;;;;17.51;100.00;98184.19;1749478;82;20909;-68
2021/05/20 07:12:59;;;;;;;5.45;3.77;;;;;;;17.59;100.00;98186.47;1749528;81;21436;-69
2021/05/20 07:15:29;;;;;;;5.05;3.30;;;;;;;17.62;100.00;98176.52;1749598;80;20945;-68
2021/05/20 07:17:56;;;;;;;4.55;2.85;;;;;;;17.66;100.00;98173.69;1749780;80;20901;-67
2021/05/20 07:20:24;;;;;;;4.87;3.00;;;;;;;17.71;100.00;98173.88;1749708;82;21028;-69
2021/05/20 07:22:51;;;;;;;6.35;3.05;;;;;;;17.93;100.00;98173.66;1749751;80;20993;-68
2021/05/20 07:25:19;;;;;;;6.65;3.20;;;;;;;17.93;100.00;98173.66;1749791;80;20969;-69
2021/05/20 07:27:46;;;;;;;5.95;3.30;;;;;;;17.97;100.00;98182.36;1749814;80;20948;-69
2021/05/20 07:30:14;;;;;;;6.60;3.22;;;;;;;17.98;100.00;98174.78;1749874;80;20878;-68
2021/05/20 07:32:42;;;;;;;5.50;3.12;;;;;;;18.01;100.00;98188.83;1749996;82;21056;-69
2021/05/20 07:35:10;;;;;;;3.92;2.52;;;;;;;18.01;100.00;98188.83;1749868;80;20866;-68
2021/05/20 07:37:38;;;;;;;7.42;3.20;;;;;;;18.04;100.00;98183.81;1749905;80;20913;-68
2021/05/20 07:40:07;;;;;;;3.42;2.60;;;;;;;18.12;100.00;98186.94;1732473;82;21420;-68
2021/05/20 07:42:34;;;;;;;2.90;2.50;;;;;;;18.12;100.00;98181.60;1711641;82;21410;-69
2021/05/20 07:45:02;;;;;;;5.35;2.80;;;;;;;18.24;100.00;98191.17;1706609;82;21068;-68
2021/05/20 07:47:29;;;;;;;4.65;2.40;;;;;;;18.29;100.00;98190.06;1706627;84;20926;-69
2021/05/20 07:49:57;;;;;;;4.80;2.70;;;;;;;18.36;100.00;98189.66;1706682;84;20882;-69
2021/05/20 07:52:24;;;;;;;5.80;2.50;;;;;;;18.36;100.00;98189.66;1706712;84;21457;-70
2021/05/20 07:54:53;;;;;;;4.90;2.80;;;;;;;18.43;100.00;98194.20;1706686;83;20917;-70
2021/05/20 07:57:21;;;;;;;4.08;3.05;;;;;;;18.42;100.00;98205.83;1706514;84;21104;-68
2021/05/20 07:59:48;;;;;;;4.10;2.42;;;;;;;18.42;100.00;98205.83;1706430;82;21475;-68
2021/05/20 08:02:21;;;;;;;4.37;2.12;;;;;;;18.47;100.00;98210.48;1706458;84;20906;-68
2021/05/20 08:04:47;;;;;;;3.85;2.30;;;;;;;18.52;100.00;98207.96;1706638;83;20903;-69
2021/05/20 08:07:29;;;;;;;3.50;2.25;;;;;;;18.52;100.00;98206.62;1706651;82;20938;-69
2021/05/20 08:10:04;;;;;;;;;;;;;;;18.55;100.00;98210.47;1719128;82;21031;-68
2021/05/20 08:12:16;;;;;;;5.70;2.45;;;;;;;18.60;100.00;98216.90;1709423;82;20498;-68
2021/05/20 08:14:45;;;;;;;4.78;2.62;;;;;;;18.64;100.00;98220.30;1706402;82;20930;-68
2021/05/20 08:17:14;;;;;;;5.10;2.27;;;;;;;18.63;100.00;98220.77;1706280;84;20930;-68
2021/05/20 08:19:41;;;;;;;5.80;2.30;;;;;;;18.65;100.00;98225.56;1706410;82;20902;-68
2021/05/20 08:22:09;;;;;;;5.28;2.58;;;;;;;18.73;100.00;98226.02;1706486;82;21553;-67
2021/05/20 08:24:37;;;;;;;13.00;2.60;;;;;;;18.80;100.00;98231.42;1707427;82;20930;-68
2021/05/20 08:27:10;;;;;;;5.33;2.52;;;;;;;18.91;100.00;98233.50;1719520;81;20879;-68
2021/05/20 08:29:35;;;;;;;4.10;2.55;;;;;;;19.00;100.00;98224.16;1714289;82;21461;-69
2021/05/20 08:32:04;;;;;;;3.27;2.12;;;;;;;19.10;100.00;98221.36;1722829;82;20978;-69
2021/05/20 08:34:32;;;;;;;7.17;2.40;;;;;;;19.21;100.00;98218.95;1720581;81;21014;-69
2021/05/20 08:37:03;;;;;;;4.83;2.70;;;;;;;19.31;100.00;98210.80;1720959;82;20922;-70
2021/05/20 08:39:30;;;;;;;3.33;2.27;;;;;;;19.38;100.00;98205.50;1724141;82;21536;-69
2021/05/20 08:41:58;;;;;;;2.55;2.22;;;;;;;19.38;100.00;98214.86;1725239;81;20961;-70
2021/05/20 08:44:29;;;;;;;8.08;3.05;;;;;;;19.42;100.00;98220.45;1723185;82;20972;-69
2021/05/20 08:47:00;;;;;;;4.65;2.90;;;;;;;19.51;100.00;98225.75;1720275;82;21052;-69
2021/05/20 08:49:28;;;;;;;5.00;2.80;;;;;;;19.58;100.00;98221.81;1720067;83;21459;-71
2021/05/20 08:51:57;;;;;;;4.40;2.85;;;;;;;19.64;100.00;98215.25;1720212;82;21478;-69
2021/05/20 08:54:26;;;;;;;5.42;2.50;;;;;;;19.68;100.00;98209.63;1720209;82;20964;-69
2021/05/20 08:56:55;;;;;;;3.12;2.42;;;;;;;19.75;100.00;98201.63;1720084;82;20906;-68
2021/05/20 08:59:25;;;;;;;4.22;2.62;;;;;;;19.80;100.00;98198.69;1720146;82;21431;-68
2021/05/20 09:01:54;;;;;;;3.37;2.50;;;;;;;19.85;100.00;98202.43;1720290;82;21407;-68
2021/05/20 09:04:26;;;;;;;6.10;2.40;;;;;;;19.91;100.00;98203.44;1720073;82;21391;-68
2021/05/20 09:07:00;;;;;;;5.87;2.75;;;;;;;19.97;100.00;98205.28;1719963;82;21463;-69
2021/05/20 09:09:34;;;;;;;4.85;2.42;;;;;;;19.96;100.00;98211.58;1683255;83;20945;-72
2021/05/20 09:11:59;;;;;;;4.10;2.20;;;;;;;19.94;100.00;98209.95;1736408;82;21031;-70
2021/05/20 09:14:38;;;;;;;4.47;2.00;;;;;;;19.94;100.00;98213.97;1720442;82;21427;-70
2021/05/20 09:17:19;;;;;;;3.22;1.87;;;;;;;19.98;100.00;98216.84;1720264;83;20918;-70
2021/05/20 09:20:01;;;;;;;3.92;2.20;;;;;;;20.02;100.00;98218.39;1720042;83;21448;-68
2021/05/20 09:22:29;;;;;;;2.52;1.75;;;;;;;20.03;100.00;98215.63;1720211;83;21524;-70
2021/05/20 09:24:58;;;;;;;4.85;1.80;;;;;;;20.04;100.00;98217.83;1720375;83;21063;-70
2021/05/20 09:27:43;;;;;;;3.52;1.67;;;;;;;20.05;100.00;98218.20;1720189;83;20906;-67
2021/05/20 09:30:20;;;;;;;4.30;2.00;;;;;;;20.10;100.00;98214.30;1720322;82;20905;-71
2021/05/20 09:33:08;;;;;;;3.12;1.82;;;;;;;20.12;100.00;98217.75;1720349;83;20965;-70
2021/05/20 09:35:39;;;;;;;3.55;2.00;;;;;;;20.18;100.00;98217.00;1720623;82;20910;-70
2021/05/20 09:38:14;;;;;;;5.60;1.72;;;;;;;20.29;100.00;98215.40;1720392;83;21627;-70
2021/05/20 09:40:56;;;;;;;2.85;1.70;;;;;;;20.37;100.00;98217.17;1720296;82;20937;-72
2021/05/20 09:43:39;;;;;;;5.37;2.05;;;;;;;20.48;100.00;98212.53;1720364;82;20894;-69
2021/05/20 09:46:17;;;;;;;3.72;1.60;;;;;;;20.58;100.00;98219.05;1720435;82;20913;-70
2021/05/20 09:48:49;;;;;;;6.03;1.90;;;;;;;20.65;100.00;98219.05;1720505;83;20917;-68
2021/05/20 09:51:26;;;;;;;5.72;1.67;;;;;;;20.71;100.00;98218.67;1720450;83;21372;-69
2021/05/20 09:53:54;;;;;;;2.00;1.42;;;;;;;20.73;100.00;98220.78;1733293;82;20941;-69
2021/05/20 09:56:38;;;;;;;4.20;1.40;;;;;;;20.74;100.00;98222.50;1750358;80;20870;-69
2021/05/20 09:59:04;;;;;;;;;;;;;;;20.70;100.00;98221.45;1752701;80;21479;-69
2021/05/20 10:01:34;;;;;;;5.40;1.50;;;;;;;20.67;100.00;98215.80;1750453;80;20129;-69
2021/05/20 10:04:01;;;;;;;4.42;1.60;;;;;;;20.64;100.00;98212.45;1750327;80;21007;-71
2021/05/20 10:06:40;;;;;;;3.40;1.67;;;;;;;20.62;100.00;98213.88;1750319;82;21404;-69
2021/05/20 10:09:13;;;;;;;2.12;1.40;;;;;;;20.67;100.00;98208.23;1750386;81;20878;-69
2021/05/20 10:11:42;;;;;;;1.57;1.45;;;;;;;20.72;100.00;98214.17;1750377;80;21460;-71
2021/05/20 10:14:10;;;;;;;4.72;1.80;;;;;;;20.76;100.00;98215.70;1750428;80;21439;-68
2021/05/20 10:16:40;;;;;;;3.10;1.65;;;;;;;20.85;100.00;98221.00;1750525;80;20901;-69
2021/05/20 10:19:09;;;;;;;2.83;1.17;;;;;;;20.92;100.00;98217.84;1750516;82;20996;-69
2021/05/20 10:21:38;;;;;;;2.20;1.40;;;;;;;20.97;100.00;98218.89;1723404;80;21503;-69
2021/05/20 10:24:08;;;;;;;2.60;1.45;;;;;;;21.04;100.00;98222.91;1750444;80;20968;-69
2021/05/20 10:26:39;;;;;;;2.95;1.70;;;;;;;21.13;100.00;98220.98;1750494;80;21004;-69
2021/05/20 10:29:07;;;;;;;2.37;1.62;;;;;;;21.21;100.00;98223.17;1750384;82;21093;-69
2021/05/20 10:31:35;;;;;;;4.33;1.80;;;;;;;21.23;100.00;98223.49;1750185;80;20902;-68
2021/05/20 10:34:05;;;;;;;2.98;1.70;;;;;;;21.28;100.00;98226.74;1750245;80;20882;-69
2021/05/20 10:36:34;;;;;;;1.70;1.37;;;;;;;21.38;100.00;98228.86;1750349;80;20934;-69
2021/05/20 10:39:21;;;;;;;4.65;1.20;;;;;;;21.44;100.00;98230.67;1750403;80;20870;-68
2021/05/20 10:41:51;;;;;;;2.65;1.30;;;;;;;21.50;100.00;98225.38;1750392;82;21184;-69
2021/05/20 10:44:19;;;;;;;4.25;1.30;;;;;;;21.59;99.89;98226.13;1730095;82;21448;-71
2021/05/20 10:47:02;;;;;;;2.25;1.30;;;;;;;21.63;97.27;98223.63;1722514;82;20938;-71
2021/05/20 10:49:55;;;;;;;2.85;1.10;;;;;;;21.64;97.64;98225.34;1722820;81;20942;-70
2021/05/20 10:52:42;;;;;;;2.67;1.60;;;;;;;21.66;98.60;98212.20;1720432;82;20998;-69
2021/05/20 10:55:11;;;;;;;4.00;1.60;;;;;;;21.74;99.17;98217.54;1722405;82;21051;-70
2021/05/20 10:58:01;;;;;;;3.60;1.35;;;;;;;21.77;96.82;98210.18;1719608;82;21556;-70
2021/05/20 11:00:41;;;;;;;2.42;1.40;;;;;;;21.83;96.87;98208.91;1722551;82;20930;-70
2021/05/20 11:03:09;;;;;;;1.98;1.40;;;;;;;21.80;97.16;98203.27;1720914;82;21517;-69
2021/05/20 11:05:48;;;;;;;2.25;1.22;;;;;;;21.77;95.28;98204.81;1701967;82;20926;-70
2021/05/20 11:08:39;;;;;;;2.50;1.35;;;;;;;21.74;95.30;98208.15;1722479;82;21082;-70
2021/05/20 11:11:10;;;;;;;1.95;1.05;;;;;;;21.67;95.07;98209.89;1722552;82;20926;-70
2021/05/20 11:13:46;;;;;;;2.37;1.20;;;;;;;21.66;96.89;98197.44;1701777;82;20945;-71
2021/05/20 11:16:21;;;;;;;1.80;1.10;;;;;;;21.67;98.15;98200.50;1720931;82;21077;-71
2021/05/20 11:18:51;;;;;;;2.77;1.50;;;;;;;21.70;95.98;98196.75;1721475;82;21428;-70
2021/05/20 11:21:21;;;;;;;2.80;1.12;;;;;;;21.68;95.52;98197.34;1721618;82;21060;-70
2021/05/20 11:23:51;;;;;;;4.17;1.40;;;;;;;21.67;94.89;98199.64;1722487;82;21431;-70
2021/05/20 11:26:27;;;;;;;3.45;1.50;;;;;;;21.64;95.19;98187.77;1703212;82;20874;-71
2021/05/20 11:28:58;;;;;;;2.50;1.35;;;;;;;21.63;95.44;98181.54;1720025;82;20954;-71
2021/05/20 11:31:27;;;;;;;4.20;1.45;;;;;;;21.63;94.31;98179.34;1697808;82;20941;-70
2021/05/20 11:34:09;;;;;;;3.67;1.30;;;;;;;21.62;93.17;98175.80;1706602;84;21726;-70
2021/05/20 11:36:38;;;;;;;4.10;1.32;;;;;;;21.67;92.80;98176.83;1705729;82;20934;-70
2021/05/20 11:39:10;;;;;;;1.42;1.20;;;;;;;21.67;93.16;98175.48;1706588;82;21441;-71
2021/05/20 11:41:40;;;;;;;4.35;1.40;;;;;;;21.72;94.14;98173.36;1706539;82;20926;-66
2021/05/20 11:44:12;;;;;;;2.95;1.25;;;;;;;21.74;93.95;98166.54;1706358;82;20855;-70
2021/05/20 11:46:41;;;;;;;;;;;;;;;21.77;94.89;98171.73;1708828;82;21630;-70
2021/05/20 11:49:20;;;;;;;2.40;1.20;;;;;;;21.82;96.97;98169.13;1706400;84;20530;-70
2021/05/20 11:51:45;;;;;;;2.95;1.27;;;;;;;21.84;93.91;98173.91;1702924;82;21428;-71
2021/05/20 11:54:17;;;;;;;4.30;1.10;;;;;;;21.89;93.15;98173.11;1706435;82;21497;-70
2021/05/20 11:56:49;;;;;;;7.50;1.20;;;;;;;21.95;93.32;98168.67;1706609;82;21555;-71
2021/05/20 11:59:19;;;;;;;3.42;1.22;;;;;;;22.03;94.93;98171.31;1710396;81;21054;-70
2021/05/20 12:01:47;;;;;;;3.62;1.30;;;;;;;22.11;92.48;98169.86;1686296;83;20973;-70
2021/05/20 12:04:15;;;;;;;3.67;1.05;;;;;;;22.11;90.68;98173.03;1706313;82;20926;-69
2021/05/20 12:06:42;;;;;;;2.17;1.20;;;;;;;22.09;89.47;98177.64;1650191;84;20958;-71
2021/05/20 12:09:13;;;;;;;4.00;1.62;;;;;;;22.00;89.83;98171.91;1663593;84;20923;-70
2021/05/20 12:11:41;;;;;;;3.15;1.60;;;;;;;21.84;92.48;98178.41;1706368;82;21063;-72